createdAt,value
2023-02-18T00:03:26.193Z,36.90
2023-02-18T00:08:30.398Z,36.70
2023-02-18T00:13:33.247Z,36.90
2023-02-18T00:18:36.337Z,37.10
2023-02-18T00:23:43.593Z,36.90
2023-02-18T00:28:48.394Z,37.00
2023-02-18T00:33:51.235Z,37.00
2023-02-18T00:38:57.405Z,37.10
2023-02-18T00:44:00.646Z,37.10
2023-02-18T00:49:04.219Z,37.20
2023-02-18T00:54:08.551Z,37.30
2023-02-18T00:59:11.420Z,37.30
2023-02-18T01:04:14.273Z,37.40
2023-02-18T01:09:18.470Z,38.00
2023-02-18T01:14:21.357Z,37.50
2023-02-18T01:19:24.194Z,37.60
2023-02-18T01:24:28.462Z,37.60
2023-02-18T01:29:31.340Z,37.70
2023-02-18T01:34:34.541Z,37.80
2023-02-18T01:39:38.718Z,37.80
2023-02-18T01:44:42.366Z,37.90
2023-02-18T01:49:47.673Z,37.90
2023-02-18T01:54:56.824Z,37.90
2023-02-18T02:00:04.486Z,37.90
2023-02-18T02:05:08.216Z,37.90
2023-02-18T02:10:14.779Z,38.00
2023-02-18T02:15:31.393Z,38.00
2023-02-18T02:21:07.440Z,38.00
2023-02-18T02:26:46.794Z,38.10
2023-02-18T02:32:25.799Z,38.20
2023-02-18T02:37:38.818Z,38.20
2023-02-18T02:42:47.979Z,38.20
2023-02-18T02:47:56.159Z,38.20
2023-02-18T02:53:06.570Z,38.20
2023-02-18T02:58:15.382Z,38.30
2023-02-18T03:03:36.042Z,38.30
2023-02-18T03:08:52.958Z,38.40
2023-02-18T03:14:03.486Z,38.40
2023-02-18T03:19:13.676Z,38.50
2023-02-18T03:24:21.558Z,38.60
2023-02-18T03:29:25.211Z,38.50
2023-02-18T03:34:30.782Z,38.60
2023-02-18T03:39:38.058Z,38.60
2023-02-18T03:44:40.940Z,38.70
2023-02-18T03:49:43.969Z,38.70
2023-02-18T03:54:48.172Z,38.80
2023-02-18T03:59:51.040Z,38.70
2023-02-18T04:04:54.082Z,38.80
2023-02-18T04:09:58.246Z,38.80
2023-02-18T04:15:01.122Z,38.90
2023-02-18T04:20:04.726Z,38.90
2023-02-18T04:25:09.452Z,38.90
2023-02-18T04:30:13.145Z,38.90
2023-02-18T04:35:16.137Z,39.00
2023-02-18T04:40:20.589Z,39.00
2023-02-18T04:45:23.402Z,39.10
2023-02-18T04:50:26.263Z,39.00
2023-02-18T04:55:30.814Z,39.00
2023-02-18T05:00:33.695Z,39.00
2023-02-18T05:05:37.407Z,39.10
2023-02-18T05:10:41.632Z,39.20
2023-02-18T05:15:44.554Z,39.20
2023-02-18T05:20:47.408Z,39.30
2023-02-18T05:25:51.630Z,39.30
2023-02-18T05:30:54.908Z,39.20
2023-02-18T05:35:57.854Z,39.60
2023-02-18T05:41:02.056Z,39.50
2023-02-18T05:46:05.155Z,39.40
2023-02-18T05:51:08.531Z,39.40
2023-02-18T05:56:12.906Z,39.40
2023-02-18T06:01:15.762Z,39.50
2023-02-18T06:06:18.633Z,39.50
2023-02-18T06:11:22.846Z,39.60
2023-02-18T06:16:26.012Z,39.60
2023-02-18T06:21:28.896Z,39.60
2023-02-18T06:26:33.159Z,39.70
2023-02-18T06:31:36.069Z,39.90
2023-02-18T06:36:39.023Z,39.90
2023-02-18T06:41:43.267Z,39.70
2023-02-18T06:46:46.430Z,39.80
2023-02-18T06:51:49.320Z,39.90
2023-02-18T06:56:54.668Z,39.90
2023-02-18T07:01:57.553Z,39.80
2023-02-18T07:07:00.402Z,39.70
2023-02-18T07:12:04.919Z,39.80
2023-02-18T07:17:07.798Z,39.80
2023-02-18T07:22:10.908Z,40.00
2023-02-18T07:27:15.104Z,39.90
2023-02-18T07:32:19.565Z,39.60
2023-02-18T07:37:22.448Z,39.60
2023-02-18T07:42:26.986Z,39.40
2023-02-18T07:47:29.902Z,39.30
2023-02-18T07:52:32.702Z,39.20
2023-02-18T07:57:57.158Z,39.10
2023-02-18T08:03:00.067Z,39.10
2023-02-18T08:08:02.913Z,39.10
2023-02-18T08:13:07.097Z,39.00
2023-02-18T08:18:15.103Z,38.90
2023-02-18T08:23:19.595Z,38.90
2023-02-18T08:28:25.048Z,38.90
2023-02-18T08:33:27.952Z,38.90
2023-02-18T08:38:30.774Z,38.90
2023-02-18T08:43:35.309Z,37.70
2023-02-18T08:48:38.322Z,38.30
2023-02-18T08:53:41.284Z,38.70
2023-02-18T08:58:45.723Z,38.90
2023-02-18T09:03:49.036Z,38.70
2023-02-18T09:08:52.149Z,38.80
2023-02-18T09:13:56.307Z,38.90
2023-02-18T09:18:59.286Z,38.80
2023-02-18T09:24:02.901Z,38.80
2023-02-18T09:29:07.248Z,38.80
2023-02-18T09:34:10.066Z,38.90
2023-02-18T09:39:13.934Z,38.90
2023-02-18T09:44:23.999Z,38.90
2023-02-18T09:49:28.991Z,39.30
2023-02-18T09:54:31.877Z,39.30
2023-02-18T09:59:36.223Z,39.70
2023-02-18T10:04:44.943Z,39.50
2023-02-18T10:09:49.870Z,39.50
2023-02-18T10:14:56.180Z,39.80
2023-02-18T10:20:00.577Z,39.70
2023-02-18T10:25:07.985Z,39.60
2023-02-18T10:30:25.343Z,39.60
2023-02-18T10:35:35.600Z,39.90
2023-02-18T10:40:49.581Z,40.00
2023-02-18T10:46:00.949Z,40.30
2023-02-18T10:51:13.871Z,40.40
2023-02-18T10:56:39.094Z,40.60
2023-02-18T11:01:45.263Z,38.50
2023-02-18T11:06:50.234Z,38.50
2023-02-18T11:12:07.914Z,37.70
2023-02-18T11:17:19.612Z,37.80
2023-02-18T11:22:24.429Z,37.60
2023-02-18T11:27:32.707Z,37.80
2023-02-18T11:32:37.986Z,37.90
2023-02-18T11:37:41.021Z,38.90
2023-02-18T11:42:44.005Z,38.10
2023-02-18T11:48:00.460Z,37.80
2023-02-18T11:53:27.589Z,37.90
2023-02-18T11:58:39.134Z,38.00
2023-02-18T12:03:49.628Z,38.00
2023-02-18T12:08:55.228Z,37.90
2023-02-18T12:13:59.551Z,38.00
2023-02-18T12:19:41.043Z,38.10
2023-02-18T12:25:00.742Z,38.70
2023-02-18T12:30:31.817Z,38.80
2023-02-18T12:35:48.207Z,38.90
2023-02-18T12:41:08.107Z,38.90
2023-02-18T12:46:24.733Z,39.10
2023-02-18T12:51:39.515Z,39.20
2023-02-18T12:56:55.110Z,39.40
2023-02-18T13:02:05.995Z,39.40
2023-02-18T13:07:36.769Z,39.70
2023-02-18T13:12:46.776Z,40.00
2023-02-18T13:17:50.937Z,39.90
2023-02-18T13:22:55.342Z,40.00
2023-02-18T13:28:09.842Z,39.90
2023-02-18T13:33:19.001Z,40.30
2023-02-18T13:38:49.813Z,40.20
2023-02-18T13:43:53.638Z,40.30
2023-02-18T13:49:06.805Z,40.30
2023-02-18T13:54:19.916Z,40.40
2023-02-18T13:59:29.201Z,40.40
2023-02-18T14:04:53.875Z,40.60
2023-02-18T14:09:59.379Z,40.60
2023-02-18T14:15:02.309Z,40.50
2023-02-18T14:20:44.990Z,40.60
2023-02-18T14:25:57.188Z,40.40
2023-02-18T14:31:03.129Z,40.50
2023-02-18T14:36:18.176Z,40.60
2023-02-18T14:41:36.038Z,40.60
2023-02-18T14:46:52.026Z,40.90
2023-02-18T14:51:57.625Z,41.10
2023-02-18T14:57:05.322Z,41.00
2023-02-18T15:02:21.328Z,41.10
2023-02-18T15:07:24.488Z,41.00
2023-02-18T15:12:30.101Z,41.10
2023-02-18T15:17:33.254Z,41.20
2023-02-18T15:22:37.339Z,41.20
2023-02-18T15:27:45.805Z,41.40
2023-02-18T15:32:53.008Z,41.20
2023-02-18T15:37:57.423Z,41.10
2023-02-18T15:43:03.512Z,41.20
2023-02-18T15:48:07.119Z,41.20
2023-02-18T15:53:15.824Z,41.40
2023-02-18T15:58:23.392Z,41.30
2023-02-18T16:03:27.722Z,41.30
2023-02-18T16:08:30.700Z,41.40
2023-02-18T16:13:36.711Z,41.30
2023-02-18T16:18:41.246Z,41.30
2023-02-18T16:23:54.342Z,41.30
2023-02-18T16:29:06.212Z,42.10
2023-02-18T16:34:09.170Z,41.80
2023-02-18T16:39:12.026Z,42.20
2023-02-18T16:44:16.569Z,42.30
2023-02-18T16:49:20.246Z,42.00
2023-02-18T16:54:23.183Z,42.10
2023-02-18T16:59:27.341Z,42.20
2023-02-18T17:04:30.335Z,42.50
2023-02-18T17:09:33.309Z,41.80
2023-02-18T17:14:37.518Z,41.70
2023-02-18T17:19:40.389Z,41.40
2023-02-18T17:24:43.325Z,40.70
2023-02-18T17:29:47.556Z,40.50
2023-02-18T17:34:50.429Z,40.10
2023-02-18T17:39:54.416Z,39.90
2023-02-18T17:44:58.768Z,39.80
2023-02-18T17:50:01.566Z,39.70
2023-02-18T17:55:17.689Z,39.50
2023-02-18T18:00:24.701Z,39.40
2023-02-18T18:05:30.249Z,39.50
2023-02-18T18:10:35.798Z,39.30
2023-02-18T18:15:41.770Z,39.20
2023-02-18T18:20:46.706Z,39.20
2023-02-18T18:25:51.063Z,39.20
2023-02-18T18:30:56.868Z,39.30
2023-02-18T18:36:00.663Z,39.10
2023-02-18T18:41:03.452Z,38.90
2023-02-18T18:46:07.761Z,38.80
2023-02-18T18:51:15.913Z,38.70
2023-02-18T18:56:19.082Z,38.50
2023-02-18T19:01:27.145Z,38.60
2023-02-18T19:06:30.193Z,39.10
2023-02-18T19:11:33.032Z,39.00
2023-02-18T19:16:40.504Z,39.00
2023-02-18T19:21:43.317Z,39.10
2023-02-18T19:26:46.187Z,39.00
2023-02-18T19:31:50.922Z,38.90
2023-02-18T19:36:54.026Z,38.70
2023-02-18T19:41:56.921Z,38.70
2023-02-18T19:47:01.922Z,38.70
2023-02-18T19:52:04.950Z,38.70
2023-02-18T19:57:07.878Z,39.00
2023-02-18T20:02:14.686Z,39.00
2023-02-18T20:07:19.293Z,38.70
2023-02-18T20:12:22.410Z,38.70
2023-02-18T20:17:26.836Z,38.60
2023-02-18T20:22:29.755Z,38.70
2023-02-18T20:27:33.925Z,38.60
2023-02-18T20:32:39.295Z,38.60
2023-02-18T20:37:42.105Z,38.40
2023-02-18T20:42:44.999Z,38.70
2023-02-18T20:47:49.181Z,39.00
2023-02-18T20:52:53.242Z,39.00
2023-02-18T20:57:56.066Z,38.90
2023-02-18T21:03:00.253Z,39.40
2023-02-18T21:08:03.141Z,39.40
2023-02-18T21:13:06.033Z,39.70
2023-02-18T21:18:10.192Z,40.10
2023-02-18T21:23:13.396Z,39.20
2023-02-18T21:28:16.426Z,39.30
2023-02-18T21:33:20.617Z,39.40
2023-02-18T21:38:23.442Z,39.40
2023-02-18T21:43:26.574Z,39.70
2023-02-18T21:48:48.238Z,39.60
2023-02-18T21:53:51.143Z,39.60
2023-02-18T21:58:54.937Z,39.40
2023-02-18T22:03:59.155Z,39.30
2023-02-18T22:09:02.556Z,39.20
2023-02-18T22:14:05.694Z,39.40
2023-02-18T22:19:11.758Z,39.50
2023-02-18T22:24:15.581Z,39.50
2023-02-18T22:29:20.322Z,39.40
2023-02-18T22:34:24.845Z,39.50
2023-02-18T22:39:27.684Z,38.70
2023-02-18T22:44:30.533Z,38.80
2023-02-18T22:49:34.768Z,38.70
2023-02-18T22:54:37.629Z,38.70
2023-02-18T22:59:41.470Z,38.70
2023-02-18T23:04:45.800Z,38.60
2023-02-18T23:09:48.659Z,38.60
2023-02-18T23:14:51.487Z,38.60
2023-02-18T23:19:55.695Z,38.60
2023-02-18T23:24:58.856Z,38.50
2023-02-18T23:30:01.835Z,38.50
2023-02-18T23:35:06.588Z,38.50
2023-02-18T23:40:10.176Z,38.50
2023-02-18T23:45:13.014Z,38.50
2023-02-18T23:50:17.636Z,38.50
2023-02-18T23:55:20.458Z,38.50
